OTBH/IUD METAR and TAF weather

Enter ICAO airport designator
Station Type Date Time Source
OTBH METAR 2022/06/28 12:56 UTC NOAA

OTBH 281256Z 35024KT 9000 HZ CLR 40/12 A2946 RMK AO2A PK WND 36032/37 SLP977 T04020121 FZRANO $


Station Type Date Time Source
OTBH Decoded METAR 2022/06/28 12:56 UTC NOAA

Station name not available
Jun 28, 2022 - 08:56 AM EDT / 2022.06.28 1256 UTC
Wind: from the N (350 degrees) at 28 MPH (24 KT):0
Visibility: 5 mile(s):0
Sky conditions: clear
Weather: haze
Temperature: 104.4 F (40.2 C)
Heat index: 102.4 F (39.1 C):1
Dew Point: 53.8 F (12.1 C)
Relative Humidity: 18%
Pressure (altimeter): 29.46 in. Hg (997 hPa)
ob: OTBH 281256Z 35024KT 9000 HZ CLR 40/12 A2946 RMK AO2A PK WND 36032/37 SLP977 T04020121 FZRANO
cycle: 13

Station Type Date Time Source
OTBH TAF 2022/06/28 08:09 UTC NOAA

TAF TAF OTBH 280800Z 2808/2914 35015G25KT 8000 HZ SKC QNH2950INS
TEMPO 2808/2812 35020G30KT 6000 BLDU 510004
BECMG 2815/2816 34015KT 9000 HZ FEW200 QNH2948INS
BECMG 2903/2904 35015G25KT 8000 HZ SKC QNH2950INS TX44/2810Z TN27/2901Z

Example: see airport list